»·PEaware :: N377AM KGEG-KPDX

N377AM :: KGEG-KPDX

FLIGHT INFORMATION

Flight Status: Arrived
Operator: Privately registered:
United States
More flights under this callsign
Pilot: Andrew M. (139)
Aircraft: SOCATA TBM-900
(TBM9)
More flights by this aircraft type
Origin: KGEG Spokane Intl
United States
Destination: KPDX Portland Intl
United States
More flights between these airports :: More routes between these airports
Route: GEG6 PSC YENTL HHOOD4 10L
File this flight plan on PilotEdge
Remarks:
Altitude:
(Current/Filed)
26,000ft
Speed:
(Current/Filed)
200kts
Departed: 26-Oct-20 05:11 PM
Arrived: 26-Oct-20 06:12 PM
Distance/Time
Traveled:
241nm/1:01
Distance/Time
To Go:
Arrived

Flight Plot

Page will automatically refresh every two minutes.

Flight plan parsing failed; only flown route is shown


Map Options




Map Legend


Flown Route
Filed Route
Departure Airport
Arrival Airport
Navaid (VOR, NDB)
Fix

Horizontal Profiles

Position Reports

Time Latitude Longitude Heading Altitude Ground
Speed
26-Oct-20 16:52 47.620423 -117.528554 0 2358ft 0kts
26-Oct-20 16:53 47.620423 -117.528554 0 2358ft 0kts
26-Oct-20 16:54 47.620423 -117.528554 0 2358ft 0kts
26-Oct-20 16:55 47.620423 -117.528554 0 2358ft 0kts
26-Oct-20 16:56 47.620423 -117.528554 0 2358ft 0kts
26-Oct-20 16:57 47.620423 -117.528554 0 2358ft 0kts
26-Oct-20 16:58 47.620423 -117.528554 0 2358ft 0kts
26-Oct-20 16:59 47.620423 -117.528554 0 2358ft 0kts
26-Oct-20 17:00 47.620423 -117.528554 0 2358ft 0kts
26-Oct-20 17:01 47.620423 -117.528554 0 2358ft 0kts
26-Oct-20 17:02 47.620423 -117.528554 0 2358ft 0kts
26-Oct-20 17:03 47.620423 -117.528554 360 2358ft 0kts
26-Oct-20 17:04 47.620423 -117.528554 360 2358ft 0kts
26-Oct-20 17:05 47.620501 -117.528957 233 2358ft 0kts
26-Oct-20 17:06 47.619058 -117.529384 180 2362ft 8kts
26-Oct-20 17:07 47.617899 -117.527424 90 2367ft 11kts
26-Oct-20 17:08 47.617878 -117.522432 87 2367ft 12kts
26-Oct-20 17:09 47.617021 -117.520238 181 2370ft 7kts
26-Oct-20 17:10 47.617045 -117.548987 270 3037ft 122kts
26-Oct-20 17:11 47.599046 -117.590974 225 5204ft 133kts
26-Oct-20 17:12 47.572290 -117.629367 228 7465ft 136kts
26-Oct-20 17:13 47.544923 -117.668413 235 9646ft 142kts
26-Oct-20 17:14 47.513999 -117.712644 240 11418ft 167kts
26-Oct-20 17:15 47.478756 -117.763464 240 13585ft 180kts
26-Oct-20 17:16 47.438501 -117.811858 231 15740ft 191kts
26-Oct-20 17:17 47.396204 -117.860525 230 17703ft 197kts
26-Oct-20 17:18 47.352353 -117.910673 230 20021ft 202kts
26-Oct-20 17:19 47.307005 -117.962529 230 22471ft 206kts
26-Oct-20 17:20 47.261432 -118.014521 231 24849ft 210kts
26-Oct-20 17:21 47.212671 -118.070323 229 26474ft 255kts
26-Oct-20 17:22 47.147236 -118.144355 226 26444ft 315kts
26-Oct-20 17:23 47.069792 -118.231816 225 26430ft 333kts
26-Oct-20 17:24 46.993621 -118.317625 225 26428ft 338kts
26-Oct-20 17:25 46.917979 -118.402568 225 26429ft 340kts
26-Oct-20 17:26 46.842487 -118.487007 225 26421ft 340kts
26-Oct-20 17:27 46.767286 -118.570826 225 26444ft 339kts
26-Oct-20 17:28 46.691974 -118.654467 224 26462ft 339kts
26-Oct-20 17:29 46.616670 -118.737807 224 26464ft 341kts
26-Oct-20 17:30 46.541019 -118.821201 224 26467ft 342kts
26-Oct-20 17:31 46.465041 -118.904671 224 26474ft 342kts
26-Oct-20 17:32 46.389147 -118.987750 224 26481ft 342kts
26-Oct-20 17:33 46.313160 -119.070634 224 26487ft 342kts
26-Oct-20 17:34 46.254249 -119.169322 262 26481ft 309kts
26-Oct-20 17:35 46.224052 -119.286236 258 26487ft 312kts
26-Oct-20 17:36 46.192022 -119.402843 258 26483ft 312kts
26-Oct-20 17:37 46.159887 -119.519193 258 26480ft 312kts
26-Oct-20 17:38 46.127443 -119.635998 258 26476ft 313kts
26-Oct-20 17:39 46.094834 -119.752867 257 26475ft 314kts
26-Oct-20 17:40 46.062052 -119.869796 257 26473ft 315kts
26-Oct-20 17:41 46.029134 -119.986650 257 26473ft 315kts
26-Oct-20 17:42 45.996102 -120.103347 257 26473ft 315kts
26-Oct-20 17:43 45.962948 -120.219916 257 26473ft 315kts
26-Oct-20 17:44 45.929732 -120.336171 257 26474ft 315kts
26-Oct-20 17:45 45.896314 -120.452543 257 26465ft 315kts
26-Oct-20 17:46 45.862619 -120.569372 256 25865ft 321kts
26-Oct-20 17:47 45.827773 -120.689437 256 24466ft 324kts
26-Oct-20 17:48 45.794688 -120.803019 256 24457ft 298kts
26-Oct-20 17:49 45.763203 -120.910722 257 24461ft 290kts
26-Oct-20 17:50 45.731421 -121.019063 256 23277ft 308kts
26-Oct-20 17:51 45.697518 -121.133812 255 21383ft 321kts
26-Oct-20 17:52 45.662076 -121.253274 255 18848ft 331kts
26-Oct-20 17:53 45.625841 -121.374985 254 16164ft 333kts
26-Oct-20 17:54 45.591519 -121.494187 255 14184ft 314kts
26-Oct-20 17:55 45.560818 -121.603593 256 14003ft 282kts
26-Oct-20 17:56 45.531972 -121.706247 257 14006ft 273kts
26-Oct-20 17:57 45.532801 -121.806923 282 14009ft 253kts
26-Oct-20 17:59 45.536424 -121.907783 282 14008ft 253kts
26-Oct-20 18:00 45.547983 -122.004480 295 14007ft 243kts
26-Oct-20 18:01 45.567420 -122.097241 295 13813ft 251kts
26-Oct-20 18:02 45.587909 -122.195712 293 11609ft 260kts
26-Oct-20 18:03 45.608186 -122.293805 292 9991ft 242kts
26-Oct-20 18:04 45.627045 -122.385274 291 8994ft 232kts
26-Oct-20 18:05 45.646511 -122.473821 298 7996ft 230kts
26-Oct-20 18:06 45.661357 -122.538853 280 5819ft 146kts
26-Oct-20 18:07 45.656594 -122.594235 236 2725ft 145kts
26-Oct-20 18:08 45.641662 -122.629091 220 1287ft 89kts
26-Oct-20 18:09 45.620416 -122.646880 201 875ft 90kts
26-Oct-20 18:10 45.605258 -122.622823 117 597ft 91kts
26-Oct-20 18:11 45.593574 -122.592506 120 20ft 68kts
26-Oct-20 18:12 45.589927 -122.583258 118 19ft 25kts
26-Oct-20 18:13 45.588532 -122.582297 210 19ft 1kts
26-Oct-20 18:13 45.587821 -122.580967 118 19ft 8kts
26-Oct-20 18:15 45.585715 -122.576820 209 20ft 11kts

Navigation Log

Ident Type
Flight plan parsing failed, navigation log unavailable